Главная страница
METAR-TAF:

METAR-TAF

Аэропорты :

Хантсвилл, Алабама, США

широта: 34-51-41N, долгота: 086-33-26W, высота над уровнем моря: 230 м

Текущие метеонаблюдения

Эта сводка был подготовлена 30 минут назад, в 13:50 UTC
Штиль
Температура -1°C
Влажность 100%
Давление 1028 hPa
Видимость: 8.0 км
ясное небо
дымка

METAR: KMDQ 211350Z AUTO 00000KT 5SM BR CLR M01/M01 A3037 RMK A02 T10051013

Время: 08:20 (14:20 UTC)


TAF: отсутствует

Метеонаблюдения и прогнозы для более 4000 аэропортов (сводки METAR и TAF).

Имеющиеся станции представлены на карте желтыми и красными точками.

Чтобы увидеть название станции, наведите на нее мышь.

Затем щелкните, чтобы увидеть метеонаблюдения и метеопрогнозы.

Управление картой: чтобы увеличить масштаб, щелкните зеленые кнопки с черным крестиком; чтобы уменьшить масштаб, щелкните зеленую кнопку с тире; для просмотра соседних карт щелкайте зеленые стрелки.


METAR-TAF: